Terminal Aerodrome Forecast
Issued by NWS

Home | Current Version | Previous Version | Text Only | Print | Product List | Glossary On
Versions: 1 2 3 4 5 6 7 8 9 10 11 12 13 14
007
FTUS43 KGRR 210540
TAFLAN
TAF
KLAN 210540Z 2106/2206 14012KT P6SM OVC200 WS020/17040KT
     FM211200 19008KT 4SM BR OVC050
     FM211400 22008KT 4SM -SHRA BR OVC025
     FM211500 23008KT 4SM -SHRA BR OVC015
     FM211800 26010KT P6SM OVC035
     FM220200 23004KT 4SM BR OVC250=

USA.gov is the U.S. government's official web portal to all federal, state and local government web resources and services.